Time;durP1;ratioP1;P1;durP2;ratioP2;P2;SDS_P1;SDS_P2;PMS_P1;PMS_P2;Temp;Humidity;BMP_temperature;BMP_pressure;BME280_temperature;BME280_humidity;BME280_pressure;Samples;Min_cycle;Max_cycle;Signal;HPM_P1;HPM_P2
2022/02/14 00:00:15;;;;;;;;;;;9.30;99.90;;;;;;5019368;28;19947;-82
2022/02/14 00:02:44;;;;;;;;;;;9.30;99.90;;;;;;5017264;28;19921;-81
2022/02/14 00:05:10;;;;;;;;;;;9.30;99.90;;;;;;5017678;28;19913;-82
2022/02/14 00:07:36;;;;;;;;;;;9.30;99.90;;;;;;5034435;28;19922;-82
2022/02/14 00:10:03;;;;;;;;;;;9.30;99.90;;;;;;5018252;28;20008;-82
2022/02/14 00:12:29;;;;;;;;;;;9.30;99.90;;;;;;5016737;28;19920;-82
2022/02/14 00:15:04;;;;;;;;;;;9.30;99.90;;;;;;5020021;28;20369;-82
2022/02/14 00:17:32;;;;;;;;;;;9.30;99.90;;;;;;5020468;28;19948;-82
2022/02/14 00:19:57;;;;;;;;;;;9.30;99.90;;;;;;5016701;28;19932;-82
2022/02/14 00:22:23;;;;;;;;;;;9.30;99.90;;;;;;5017149;28;20040;-82
2022/02/14 00:24:57;;;;;;;;;;;9.40;99.90;;;;;;5019864;28;20000;-82
2022/02/14 00:27:23;;;;;;;;;;;9.40;99.90;;;;;;5017807;28;19914;-82
2022/02/14 00:29:51;;;;;;;;;;;9.30;99.90;;;;;;5020709;28;19925;-82
2022/02/14 00:32:23;;;;;;;;;;;9.20;99.90;;;;;;5016762;28;20399;-82
2022/02/14 00:34:50;;;;;;;;;;;9.20;99.90;;;;;;5018833;28;19972;-82
2022/02/14 00:37:16;;;;;;;;;;;9.10;99.90;;;;;;5019233;28;19913;-82
2022/02/14 00:39:45;;;;;;;;;;;9.00;99.90;;;;;;5040880;28;19917;-82
2022/02/14 00:42:15;;;;;;;;;;;8.90;99.90;;;;;;5018926;28;19913;-81
2022/02/14 00:44:49;;;;;;;;;;;8.90;99.90;;;;;;5016290;28;19967;-83
2022/02/14 00:47:14;;;;;;;;;;;8.80;99.90;;;;;;5014423;28;19913;-82
2022/02/14 00:49:40;;;;;;;;;;;8.70;99.90;;;;;;5015441;28;19914;-82
2022/02/14 00:52:12;;;;;;;;;;;8.70;99.90;;;;;;5013313;28;19940;-82
2022/02/14 00:54:40;;;;;;;;;;;8.60;99.90;;;;;;5013558;28;20333;-82
2022/02/14 00:57:05;;;;;;;;;;;8.60;99.90;;;;;;5017464;28;19914;-82
2022/02/14 00:59:33;;;;;;;;;;;8.60;99.90;;;;;;5032007;28;19924;-83
2022/02/14 01:02:07;;;;;;;;;;;8.50;99.90;;;;;;5016325;28;19925;-82
2022/02/14 01:04:33;;;;;;;;;;;8.50;99.90;;;;;;5014897;28;19925;-83
2022/02/14 01:07:01;;;;;;;;;;;8.40;99.90;;;;;;5015368;28;19913;-82
2022/02/14 01:09:32;;;;;;;;;;;8.30;99.90;;;;;;5016382;28;20876;-82
2022/02/14 01:12:00;;;;;;;;;;;8.30;99.90;;;;;;5014055;28;19917;-83
2022/02/14 01:14:29;;;;;;;;;;;8.30;1.00;;;;;;5012660;28;20321;-82
2022/02/14 01:17:02;;;;;;;;;;;8.20;1.00;;;;;;5010295;28;20000;-83
2022/02/14 01:19:37;;;;;;;;;;;8.20;1.00;;;;;;5014617;28;19929;-82
2022/02/14 01:22:05;;;;;;;;;;;8.10;1.00;;;;;;5015257;28;19917;-83
2022/02/14 01:24:35;;;;;;;;;;;8.10;1.00;;;;;;5016062;28;19922;-82
2022/02/14 01:27:01;;;;;;;;;;;8.10;1.00;;;;;;5019670;28;19913;-82
2022/02/14 01:29:26;;;;;;;;;;;8.10;1.00;;;;;;5020158;28;19920;-83
2022/02/14 01:31:52;;;;;;;;;;;8.10;1.00;;;;;;5022053;28;19913;-82
2022/02/14 01:34:18;;;;;;;;;;;8.10;1.00;;;;;;5021411;28;19924;-82
2022/02/14 01:36:43;;;;;;;;;;;8.10;1.00;;;;;;5036209;28;20240;-83
2022/02/14 01:39:12;;;;;;;;;;;8.20;1.00;;;;;;5020776;28;19940;-82
2022/02/14 01:41:40;;;;;;;;;;;8.20;1.00;;;;;;5020463;28;19924;-82
2022/02/14 01:44:32;;;;;;;;;;;8.30;1.00;;;;;;5018755;28;20000;-82
2022/02/14 01:47:07;;;;;;;;;;;8.40;1.00;;;;;;5008318;28;19921;-82
2022/02/14 01:49:39;;;;;;;;;;;8.40;1.00;;;;;;5018910;28;19922;-82
2022/02/14 01:52:07;;;;;;;;;;;8.40;1.00;;;;;;5019285;28;19918;-82
2022/02/14 01:54:37;;;;;;;;;;;8.50;1.00;;;;;;5019418;28;19933;-82
2022/02/14 01:57:11;;;;;;;;;;;8.50;1.00;;;;;;5017298;28;19922;-82
2022/02/14 01:59:40;;;;;;;;;;;8.50;1.00;;;;;;5019598;28;19921;-82
2022/02/14 02:02:06;;;;;;;;;;;8.50;1.00;;;;;;5017277;28;19953;-82
2022/02/14 02:04:32;;;;;;;;;;;8.50;1.00;;;;;;5015014;28;19964;-82
2022/02/14 02:06:58;;;;;;;;;;;8.60;1.00;;;;;;5018429;28;20479;-83
2022/02/14 02:09:24;;;;;;;;;;;8.60;1.00;;;;;;5017745;28;19993;-82
2022/02/14 02:14:34;;;;;;;;;;;8.60;1.00;;;;;;5016881;28;19924;-82
2022/02/14 02:17:05;;;;;;;;;;;8.60;1.00;;;;;;5017256;28;20317;-82
2022/02/14 02:19:31;;;;;;;;;;;8.60;1.00;;;;;;5017582;28;20016;-82
2022/02/14 02:21:57;;;;;;;;;;;8.60;1.00;;;;;;5014065;28;19968;-82
2022/02/14 02:24:25;;;;;;;;;;;8.60;1.00;;;;;;5016871;28;19923;-82
2022/02/14 02:26:57;;;;;;;;;;;8.50;1.00;;;;;;5031758;28;19913;-82
2022/02/14 02:32:17;;;;;;;;;;;8.50;1.00;;;;;;5013750;28;19918;-83
2022/02/14 02:34:43;;;;;;;;;;;8.40;1.00;;;;;;5016582;28;19985;-82
2022/02/14 02:37:12;;;;;;;;;;;8.50;1.00;;;;;;5016568;28;19996;-82
2022/02/14 02:39:39;;;;;;;;;;;8.50;1.00;;;;;;5009989;28;19927;-82
2022/02/14 02:42:06;;;;;;;;;;;8.50;1.00;;;;;;5016216;28;20004;-82
2022/02/14 02:44:43;;;;;;;;;;;8.50;1.00;;;;;;5018376;28;19921;-82
2022/02/14 02:47:10;;;;;;;;;;;8.50;1.00;;;;;;5017788;28;19917;-83
2022/02/14 02:49:39;;;;;;;;;;;8.60;1.00;;;;;;5016090;28;19991;-82
2022/02/14 02:52:11;;;;;;;;;;;8.60;1.00;;;;;;5020049;28;19914;-83
2022/02/14 02:54:37;;;;;;;;;;;8.70;1.00;;;;;;5018965;28;19985;-82
2022/02/14 02:57:03;;;;;;;;;;;8.70;1.00;;;;;;5019286;28;19966;-82
2022/02/14 02:59:29;;;;;;;;;;;8.70;1.00;;;;;;5015004;28;20345;-82
2022/02/14 03:01:54;;;;;;;;;;;8.80;1.00;;;;;;5017700;28;19959;-82
2022/02/14 03:04:20;;;;;;;;;;;8.80;1.00;;;;;;5016187;28;19913;-82
2022/02/14 03:06:46;;;;;;;;;;;8.80;1.00;;;;;;5016661;28;19914;-82
2022/02/14 03:09:12;;;;;;;;;;;8.80;1.00;;;;;;5020390;28;20427;-82
2022/02/14 03:11:38;;;;;;;;;;;8.70;1.00;;;;;;5019646;28;19925;-82
2022/02/14 03:14:04;;;;;;;;;;;8.70;1.00;;;;;;5016929;28;20016;-82
2022/02/14 03:16:32;;;;;;;;;;;8.70;1.00;;;;;;5018427;28;19924;-83
2022/02/14 03:19:01;;;;;;;;;;;8.60;1.00;;;;;;5016997;28;19960;-82
2022/02/14 03:21:29;;;;;;;;;;;8.50;1.00;;;;;;5013177;28;19929;-83
2022/02/14 03:23:57;;;;;;;;;;;8.50;1.00;;;;;;5018055;28;19929;-82
2022/02/14 03:26:24;;;;;;;;;;;8.50;1.00;;;;;;5017263;28;19990;-82
2022/02/14 03:28:53;;;;;;;;;;;8.50;1.00;;;;;;5018172;28;19914;-82
2022/02/14 03:31:19;;;;;;;;;;;8.50;1.00;;;;;;5017722;28;19948;-82
2022/02/14 03:33:45;;;;;;;;;;;8.50;1.00;;;;;;5017560;28;19928;-82
2022/02/14 03:36:11;;;;;;;;;;;8.50;1.00;;;;;;5017510;28;19914;-82
2022/02/14 03:38:40;;;;;;;;;;;8.60;1.00;;;;;;5018556;28;20413;-82
2022/02/14 03:41:14;;;;;;;;;;;8.70;1.00;;;;;;5017676;28;19921;-83
2022/02/14 03:43:58;;;;;;;;;;;8.80;1.00;;;;;;5016591;28;21047;-82
2022/02/14 03:46:26;;;;;;;;;;;8.90;1.00;;;;;;5017340;28;19993;-82
2022/02/14 03:48:56;;;;;;;;;;;9.00;1.00;;;;;;5019812;28;20439;-83
2022/02/14 03:51:29;;;;;;;;;;;9.00;1.00;;;;;;5012672;28;19914;-82
2022/02/14 03:53:57;;;;;;;;;;;9.10;1.00;;;;;;5017099;28;19913;-83
2022/02/14 03:56:34;;;;;;;;;;;9.10;1.00;;;;;;5021709;28;19949;-82
2022/02/14 03:58:59;;;;;;;;;;;9.20;1.00;;;;;;5014403;28;19913;-83
2022/02/14 04:01:25;;;;;;;;;;;9.20;1.00;;;;;;5016567;28;19922;-83
2022/02/14 04:04:13;;;;;;;;;;;9.30;1.00;;;;;;5016038;28;19921;-82
2022/02/14 04:06:41;;;;;;;;;;;9.30;1.00;;;;;;5015115;28;19922;-82
2022/02/14 04:09:18;;;;;;;;;;;9.30;1.00;;;;;;5013039;28;19917;-82
2022/02/14 04:11:46;;;;;;;;;;;9.40;1.00;;;;;;5016010;28;19925;-82
2022/02/14 04:14:12;;;;;;;;;;;9.40;99.90;;;;;;5012851;28;20044;-82
2022/02/14 04:16:38;;;;;;;;;;;9.50;99.90;;;;;;5014870;28;20389;-82
2022/02/14 04:19:04;;;;;;;;;;;9.40;99.90;;;;;;5017158;28;20000;-82
2022/02/14 04:21:34;;;;;;;;;;;9.40;99.90;;;;;;5016290;28;19926;-82
2022/02/14 04:24:05;;;;;;;;;;;9.40;99.90;;;;;;5013541;28;19975;-82
2022/02/14 04:26:39;;;;;;;;;;;9.50;1.00;;;;;;5016903;28;20287;-82
2022/02/14 04:29:05;;;;;;;;;;;9.40;1.00;;;;;;5030384;28;19914;-83
2022/02/14 04:31:33;;;;;;;;;;;9.40;99.90;;;;;;5013251;28;19920;-82
2022/02/14 04:33:58;;;;;;;;;;;9.50;1.00;;;;;;5010754;28;19921;-82
2022/02/14 04:36:24;;;;;;;;;;;9.50;1.00;;;;;;5012938;28;20289;-82
2022/02/14 04:38:52;;;;;;;;;;;9.50;1.00;;;;;;5015572;28;19920;-82
2022/02/14 04:41:29;;;;;;;;;;;9.60;99.90;;;;;;5013720;28;19960;-82
2022/02/14 04:44:05;;;;;;;;;;;9.60;99.90;;;;;;5015605;28;19940;-82
2022/02/14 04:46:48;;;;;;;;;;;9.70;99.90;;;;;;5013069;28;20297;-82
2022/02/14 04:49:33;;;;;;;;;;;9.70;99.90;;;;;;5012118;28;19932;-82
2022/02/14 04:52:02;;;;;;;;;;;9.80;99.90;;;;;;5011826;28;20363;-82
2022/02/14 04:54:27;;;;;;;;;;;9.80;99.90;;;;;;5016306;28;19941;-82
2022/02/14 04:56:56;;;;;;;;;;;9.90;99.90;;;;;;5016350;28;19936;-82
2022/02/14 04:59:24;;;;;;;;;;;9.90;99.90;;;;;;5016287;28;19944;-82
2022/02/14 05:01:53;;;;;;;;;;;9.90;99.90;;;;;;5013283;28;19914;-82
2022/02/14 05:04:19;;;;;;;;;;;10.00;99.90;;;;;;5014917;28;19944;-83
2022/02/14 05:06:50;;;;;;;;;;;10.00;99.90;;;;;;5019049;28;19962;-82
2022/02/14 05:09:19;;;;;;;;;;;10.00;99.90;;;;;;5014941;28;20469;-82
2022/02/14 05:11:44;;;;;;;;;;;10.10;99.90;;;;;;5017878;28;19919;-82
2022/02/14 05:14:14;;;;;;;;;;;10.10;99.90;;;;;;5014688;28;20374;-82
2022/02/14 05:16:46;;;;;;;;;;;10.10;99.90;;;;;;5009397;28;19914;-82
2022/02/14 05:19:23;;;;;;;;;;;10.10;99.90;;;;;;5017436;28;19917;-82
2022/02/14 05:21:54;;;;;;;;;;;10.10;99.90;;;;;;5015069;28;20432;-82
2022/02/14 05:27:16;;;;;;;;;;;10.10;99.90;;;;;;5020197;28;20004;-82
2022/02/14 05:29:41;;;;;;;;;;;10.10;99.90;;;;;;5017787;28;19917;-82
2022/02/14 05:32:10;;;;;;;;;;;10.10;99.90;;;;;;5020319;28;19914;-82
2022/02/14 05:34:36;;;;;;;;;;;10.10;99.90;;;;;;5018055;28;19914;-82
2022/02/14 05:37:05;;;;;;;;;;;10.10;99.90;;;;;;5019716;28;19914;-82
2022/02/14 05:39:30;;;;;;;;;;;10.10;99.90;;;;;;5018217;28;20369;-82
2022/02/14 05:41:58;;;;;;;;;;;10.10;99.90;;;;;;5034075;28;19928;-82
2022/02/14 05:44:26;;;;;;;;;;;10.10;99.90;;;;;;5018379;28;19918;-82
2022/02/14 05:46:51;;;;;;;;;;;10.10;99.90;;;;;;5018687;28;19959;-82
2022/02/14 05:49:17;;;;;;;;;;;10.10;99.90;;;;;;5020260;28;19953;-82
2022/02/14 05:51:45;;;;;;;;;;;10.10;99.90;;;;;;5018283;28;19913;-82
2022/02/14 05:54:14;;;;;;;;;;;10.10;99.90;;;;;;5034207;28;19948;-82
2022/02/14 05:56:42;;;;;;;;;;;10.10;99.90;;;;;;5018997;28;19913;-83
2022/02/14 05:59:17;;;;;;;;;;;10.10;1.00;;;;;;5018796;28;19913;-82
2022/02/14 06:01:43;;;;;;;;;;;10.00;1.00;;;;;;5017971;28;19914;-82
2022/02/14 06:04:08;;;;;;;;;;;10.00;1.00;;;;;;5013296;28;19914;-83
2022/02/14 06:06:42;;;;;;;;;;;10.00;1.00;;;;;;5019490;28;19918;-82
2022/02/14 06:09:11;;;;;;;;;;;10.00;1.00;;;;;;5014327;28;20400;-82
2022/02/14 06:11:36;;;;;;;;;;;10.00;1.00;;;;;;5019211;28;19928;-82
2022/02/14 06:14:02;;;;;;;;;;;10.00;1.00;;;;;;5020720;28;19910;-82
2022/02/14 06:16:28;;;;;;;;;;;10.00;1.00;;;;;;5022847;28;20350;-84
2022/02/14 06:18:54;;;;;;;;;;;10.00;1.00;;;;;;5011160;28;20012;-83
2022/02/14 06:21:19;;;;;;;;;;;10.00;1.00;;;;;;5018550;28;19918;-83
2022/02/14 06:23:45;;;;;;;;;;;10.00;1.00;;;;;;5018118;28;20007;-84
2022/02/14 06:26:16;;;;;;;;;;;10.00;1.00;;;;;;5019990;28;19924;-83
2022/02/14 06:28:41;;;;;;;;;;;10.00;1.00;;;;;;5017951;28;19910;-84
2022/02/14 06:31:07;;;;;;;;;;;10.00;1.00;;;;;;5021027;28;19936;-84
2022/02/14 06:33:36;;;;;;;;;;;9.90;1.00;;;;;;5017311;28;19909;-84
2022/02/14 06:36:02;;;;;;;;;;;10.00;1.00;;;;;;5030186;28;19910;-83
2022/02/14 06:38:31;;;;;;;;;;;10.00;1.00;;;;;;5013854;28;19921;-83
2022/02/14 06:41:11;;;;;;;;;;;10.10;1.00;;;;;;5024913;28;20440;-83
2022/02/14 06:43:36;;;;;;;;;;;10.30;1.00;;;;;;5011442;28;19909;-83
2022/02/14 06:46:02;;;;;;;;;;;10.40;1.00;;;;;;5015783;28;19924;-84
2022/02/14 06:48:47;;;;;;;;;;;10.40;1.00;;;;;;5009274;28;19910;-83
2022/02/14 06:51:13;;;;;;;;;;;10.40;1.00;;;;;;5016556;28;20023;-83
2022/02/14 06:53:44;;;;;;;;;;;10.50;1.00;;;;;;5012265;28;19941;-83
2022/02/14 06:56:19;;;;;;;;;;;10.50;1.00;;;;;;5028733;28;19948;-82
2022/02/14 06:58:48;;;;;;;;;;;10.50;1.00;;;;;;5012048;28;20309;-82
2022/02/14 07:01:13;;;;;;;;;;;10.60;1.00;;;;;;5008478;28;19941;-82
2022/02/14 07:03:39;;;;;;;;;;;10.60;1.00;;;;;;5008842;28;19914;-83
2022/02/14 07:06:05;;;;;;;;;;;10.70;1.00;;;;;;5014711;28;20014;-83
2022/02/14 07:08:31;;;;;;;;;;;10.70;1.00;;;;;;5009364;28;19977;-84
2022/02/14 07:11:05;;;;;;;;;;;10.80;1.00;;;;;;5014906;28;19972;-83
2022/02/14 07:13:31;;;;;;;;;;;10.80;1.00;;;;;;5015700;28;19924;-84
2022/02/14 07:16:05;;;;;;;;;;;10.80;1.00;;;;;;5031400;28;19913;-84
2022/02/14 07:18:31;;;;;;;;;;;10.80;1.00;;;;;;5016490;28;19913;-84
2022/02/14 07:20:57;;;;;;;;;;;10.80;1.00;;;;;;5013514;28;19932;-83
2022/02/14 07:23:38;;;;;;;;;;;10.80;1.00;;;;;;5014832;28;20297;-83
2022/02/14 07:26:15;;;;;;;;;;;10.80;1.00;;;;;;5013971;28;19961;-83
2022/02/14 07:28:46;;;;;;;;;;;10.90;1.00;;;;;;5027965;28;20001;-83
2022/02/14 07:31:11;;;;;;;;;;;10.90;1.00;;;;;;5009356;28;20073;-84
2022/02/14 07:33:40;;;;;;;;;;;10.90;1.00;;;;;;5013265;28;20012;-83
2022/02/14 07:36:09;;;;;;;;;;;11.00;1.00;;;;;;5028854;28;19936;-85
2022/02/14 07:38:35;;;;;;;;;;;11.00;1.00;;;;;;5009930;28;19913;-84
2022/02/14 07:41:02;;;;;;;;;;;11.00;1.00;;;;;;5015403;28;20397;-84
2022/02/14 07:43:33;;;;;;;;;;;11.10;1.00;;;;;;5015122;28;19939;-83
2022/02/14 07:46:02;;;;;;;;;;;11.10;1.00;;;;;;5012908;28;19913;-84
2022/02/14 07:48:28;;;;;;;;;;;11.20;1.00;;;;;;5015610;28;19921;-83
2022/02/14 07:50:53;;;;;;;;;;;11.20;1.00;;;;;;5013543;28;19999;-84
2022/02/14 07:53:22;;;;;;;;;;;11.20;1.00;;;;;;5012481;28;19920;-84
2022/02/14 07:55:54;;;;;;;;;;;11.30;1.00;;;;;;5014630;28;19914;-84
2022/02/14 07:58:20;;;;;;;;;;;11.30;1.00;;;;;;5020992;23;19926;-84
2022/02/14 08:00:45;;;;;;;;;;;11.40;1.00;;;;;;5036990;28;19952;-85
2022/02/14 08:03:11;;;;;;;;;;;11.50;1.00;;;;;;5038347;28;19912;-85
2022/02/14 08:05:36;;;;;;;;;;;11.60;1.00;;;;;;5040826;28;19991;-85
2022/02/14 08:08:02;;;;;;;;;;;11.70;1.00;;;;;;5039920;28;19920;-85
2022/02/14 08:10:28;;;;;;;;;;;11.80;1.00;;;;;;5037216;28;20427;-85
2022/02/14 08:12:53;;;;;;;;;;;11.90;1.00;;;;;;5022692;28;19955;-85
2022/02/14 08:15:19;;;;;;;;;;;12.00;1.00;;;;;;5040515;28;20452;-85
2022/02/14 08:17:44;;;;;;;;;;;12.20;1.00;;;;;;5027051;28;19917;-85
2022/02/14 08:20:10;;;;;;;;;;;12.30;1.00;;;;;;5021735;28;19985;-85
2022/02/14 08:22:35;;;;;;;;;;;12.50;1.00;;;;;;5019474;28;20382;-85
2022/02/14 08:25:01;;;;;;;;;;;12.60;1.00;;;;;;5032103;28;19945;-85
2022/02/14 08:27:26;;;;;;;;;;;12.70;1.00;;;;;;5039740;28;20000;-85
2022/02/14 08:29:52;;;;;;;;;;;12.70;1.00;;;;;;5026358;28;20374;-85
2022/02/14 08:32:18;;;;;;;;;;;12.70;1.00;;;;;;5017622;28;19920;-85
2022/02/14 08:34:43;;;;;;;;;;;12.80;1.00;;;;;;5016513;28;20294;-85
2022/02/14 08:37:09;;;;;;;;;;;12.80;1.00;;;;;;5017760;28;19913;-85
2022/02/14 08:39:35;;;;;;;;;;;12.60;1.00;;;;;;5019661;28;19971;-85
2022/02/14 08:42:01;;;;;;;;;;;12.40;1.00;;;;;;5016214;28;19948;-85
2022/02/14 08:44:26;;;;;;;;;;;12.30;1.00;;;;;;5024075;28;19913;-86
2022/02/14 08:46:52;;;;;;;;;;;12.20;1.00;;;;;;5015261;28;19913;-86
2022/02/14 08:49:17;;;;;;;;;;;12.10;1.00;;;;;;5016777;28;19940;-85
2022/02/14 08:51:43;;;;;;;;;;;12.00;1.00;;;;;;5018549;28;19916;-86
2022/02/14 08:54:08;;;;;;;;;;;12.00;1.00;;;;;;5019122;28;20401;-84
2022/02/14 08:56:34;;;;;;;;;;;11.90;1.00;;;;;;5015727;28;20012;-86
2022/02/14 08:58:59;;;;;;;;;;;11.90;1.00;;;;;;5014153;28;19917;-85
2022/02/14 09:01:25;;;;;;;;;;;11.90;1.00;;;;;;5015040;28;19914;-85
2022/02/14 09:03:53;;;;;;;;;;;11.90;1.00;;;;;;5014011;28;20290;-84
2022/02/14 09:06:19;;;;;;;;;;;11.90;1.00;;;;;;5014579;28;19913;-86
2022/02/14 09:08:44;;;;;;;;;;;11.90;1.00;;;;;;5015890;28;20270;-85
2022/02/14 09:11:10;;;;;;;;;;;12.00;1.00;;;;;;5015025;28;19914;-86
2022/02/14 09:13:36;;;;;;;;;;;12.00;1.00;;;;;;5012191;28;19921;-86
2022/02/14 09:16:04;;;;;;;;;;;12.00;1.00;;;;;;5010020;28;19913;-86
2022/02/14 09:18:31;;;;;;;;;;;12.00;1.00;;;;;;5017197;28;19961;-86
2022/02/14 09:20:57;;;;;;;;;;;12.00;1.00;;;;;;5014531;28;19972;-86
2022/02/14 09:23:22;;;;;;;;;;;11.90;8.30;;;;;;5022038;28;19913;-86
2022/02/14 09:25:48;;;;;;;;;;;11.60;99.90;;;;;;5023150;28;20328;-86
2022/02/14 09:28:13;;;;;;;;;;;11.50;1.00;;;;;;5024313;28;19914;-85
2022/02/14 09:30:39;;;;;;;;;;;11.50;1.00;;;;;;5025505;28;19913;-87
2022/02/14 09:33:05;;;;;;;;;;;11.80;39.50;;;;;;5023053;28;19948;-85
2022/02/14 09:35:30;;;;;;;;;;;12.60;1.00;;;;;;5048032;28;19913;-84
2022/02/14 09:37:57;;;;;;;;;;;12.90;1.00;;;;;;5027774;28;19993;-85
2022/02/14 09:40:23;;;;;;;;;;;13.60;1.00;;;;;;5026826;28;19917;-86
2022/02/14 09:42:51;;;;;;;;;;;15.70;1.00;;;;;;5057219;28;19953;-85
2022/02/14 09:45:16;;;;;;;;;;;17.10;1.00;;;;;;5026586;28;20016;-86
2022/02/14 09:47:43;;;;;;;;;;;18.10;1.00;;;;;;5024511;28;19914;-86
2022/02/14 09:50:09;;;;;;;;;;;19.20;1.00;;;;;;5025925;28;19928;-86
2022/02/14 09:52:35;;;;;;;;;;;20.40;1.00;;;;;;5029002;28;19952;-86
2022/02/14 09:55:01;;;;;;;;;;;21.80;1.00;;;;;;5032635;28;19917;-86
2022/02/14 09:57:26;;;;;;;;;;;23.60;1.00;;;;;;5064048;28;19992;-87
2022/02/14 09:59:52;;;;;;;;;;;24.50;1.00;;;;;;5031852;28;19952;-86
2022/02/14 10:02:23;;;;;;;;;;;25.40;99.90;;;;;;5062678;28;19913;-86
2022/02/14 10:05:02;;;;;;;;;;;26.20;99.90;;;;;;5033181;28;19945;-86
2022/02/14 10:07:48;;;;;;;;;;;24.90;99.90;;;;;;5029037;28;19918;-86
2022/02/14 10:10:18;;;;;;;;;;;23.90;99.90;;;;;;5035656;28;19944;-86
2022/02/14 10:12:49;;;;;;;;;;;22.70;99.90;;;;;;5035092;28;19973;-86
2022/02/14 10:15:16;;;;;;;;;;;22.60;99.90;;;;;;5030746;28;19953;-86
2022/02/14 10:17:43;;;;;;;;;;;21.70;99.90;;;;;;5033004;28;19914;-86
2022/02/14 10:20:10;;;;;;;;;;;22.00;99.90;;;;;;5031346;28;19906;-87
2022/02/14 10:22:54;;;;;;;;;;;23.00;99.90;;;;;;5033145;28;19928;-86
2022/02/14 10:25:25;;;;;;;;;;;23.50;99.90;;;;;;5048952;28;20519;-85
2022/02/14 10:27:51;;;;;;;;;;;23.80;99.90;;;;;;5032760;28;19921;-84
2022/02/14 10:30:16;;;;;;;;;;;24.10;99.90;;;;;;5034643;28;19964;-86
2022/02/14 10:32:49;;;;;;;;;;;23.90;99.90;;;;;;5031832;28;20012;-86
2022/02/14 10:35:14;;;;;;;;;;;22.00;99.90;;;;;;5031044;28;19913;-86
2022/02/14 10:37:41;;;;;;;;;;;20.30;99.90;;;;;;5030453;28;19918;-85
2022/02/14 10:40:08;;;;;;;;;;;18.60;99.90;;;;;;5030569;28;19931;-85
2022/02/14 10:42:35;;;;;;;;;;;17.60;99.90;;;;;;5031440;28;19913;-85
2022/02/14 10:45:11;;;;;;;;;;;16.80;99.90;;;;;;5029747;28;19924;-86
2022/02/14 10:47:36;;;;;;;;;;;16.70;99.90;;;;;;5028926;28;19914;-85
2022/02/14 10:50:02;;;;;;;;;;;17.00;99.90;;;;;;5029576;28;19921;-85
2022/02/14 10:52:33;;;;;;;;;;;16.60;99.90;;;;;;5031418;28;19913;-85
2022/02/14 10:54:59;;;;;;;;;;;16.10;99.90;;;;;;5031136;28;19920;-85
2022/02/14 10:57:32;;;;;;;;;;;15.80;99.90;;;;;;5032295;28;19898;-84
2022/02/14 11:00:08;;;;;;;;;;;15.60;99.90;;;;;;5028298;28;19925;-85
2022/02/14 11:02:33;;;;;;;;;;;15.60;99.90;;;;;;5035781;28;19940;-85
2022/02/14 11:04:59;;;;;;;;;;;16.20;99.90;;;;;;5030324;28;19898;-85
2022/02/14 11:07:25;;;;;;;;;;;16.10;99.90;;;;;;5031603;28;19906;-86
2022/02/14 11:09:51;;;;;;;;;;;15.70;99.90;;;;;;5029597;28;20377;-86
2022/02/14 11:12:18;;;;;;;;;;;15.60;99.90;;;;;;5029535;28;19913;-85
2022/02/14 11:14:45;;;;;;;;;;;15.30;99.90;;;;;;5027565;28;19913;-84
2022/02/14 11:17:12;;;;;;;;;;;15.00;99.90;;;;;;5029939;28;19913;-85
2022/02/14 11:19:39;;;;;;;;;;;14.90;99.90;;;;;;5031552;28;19999;-85
2022/02/14 11:22:06;;;;;;;;;;;15.40;99.90;;;;;;5026509;28;19925;-85
2022/02/14 11:24:34;;;;;;;;;;;17.00;99.90;;;;;;5028338;28;19941;-86
2022/02/14 11:27:02;;;;;;;;;;;19.20;99.90;;;;;;5027983;28;19925;-85
2022/02/14 11:29:55;;;;;;;;;;;19.90;99.90;;;;;;5030353;28;20197;-86
2022/02/14 11:32:21;;;;;;;;;;;19.60;99.90;;;;;;5025887;28;19918;-85
2022/02/14 11:35:17;;;;;;;;;;;20.70;99.90;;;;;;5030178;28;19964;-85
2022/02/14 11:37:50;;;;;;;;;;;19.80;99.90;;;;;;5022548;28;20021;-85
2022/02/14 11:40:28;;;;;;;;;;;19.00;99.90;;;;;;5030368;28;19936;-86
2022/02/14 11:43:09;;;;;;;;;;;17.80;99.90;;;;;;5027585;28;19918;-85
2022/02/14 11:45:35;;;;;;;;;;;16.60;99.90;;;;;;5024585;28;19913;-84
2022/02/14 11:48:20;;;;;;;;;;;15.80;99.90;;;;;;5029739;28;19914;-85
2022/02/14 11:50:45;;;;;;;;;;;15.40;99.90;;;;;;5031330;28;19921;-85
2022/02/14 11:53:29;;;;;;;;;;;14.80;99.90;;;;;;5028288;28;20334;-86
2022/02/14 11:56:15;;;;;;;;;;;14.50;99.90;;;;;;5029133;28;19913;-85
2022/02/14 11:58:58;;;;;;;;;;;14.20;99.90;;;;;;5027025;28;19918;-86
2022/02/14 12:01:24;;;;;;;;;;;13.90;99.90;;;;;;5028876;28;19922;-85
2022/02/14 12:03:50;;;;;;;;;;;13.70;99.90;;;;;;5030965;28;19953;-85
2022/02/14 12:06:15;;;;;;;;;;;13.90;99.90;;;;;;5030154;28;19917;-85
2022/02/14 12:09:10;;;;;;;;;;;15.00;99.90;;;;;;5029878;28;19936;-86
2022/02/14 12:11:49;;;;;;;;;;;16.70;99.90;;;;;;5024975;28;19914;-86
2022/02/14 12:14:18;;;;;;;;;;;18.30;99.90;;;;;;5028413;28;19914;-86
2022/02/14 12:22:31;;;;;;;;;;;17.40;99.90;;;;;;5023201;28;19921;-85
2022/02/14 12:24:57;;;;;;;;;;;18.20;99.90;;;;;;5025875;28;19913;-86
2022/02/14 12:27:23;;;;;;;;;;;19.20;99.90;;;;;;5029613;28;19922;-86
2022/02/14 12:29:49;;;;;;;;;;;19.60;99.90;;;;;;5027577;28;20262;-85
2022/02/14 12:32:17;;;;;;;;;;;18.80;99.90;;;;;;5027718;28;19979;-85
2022/02/14 12:34:44;;;;;;;;;;;18.40;99.90;;;;;;5030590;28;19913;-85
2022/02/14 12:37:11;;;;;;;;;;;17.70;99.90;;;;;;5027420;28;19918;-84
2022/02/14 12:39:43;;;;;;;;;;;17.60;99.90;;;;;;5022406;28;19926;-84
2022/02/14 12:42:09;;;;;;;;;;;18.50;99.90;;;;;;5021517;28;19937;-83
2022/02/14 12:44:35;;;;;;;;;;;18.30;99.90;;;;;;5023584;28;19976;-84
2022/02/14 12:47:00;;;;;;;;;;;17.70;99.90;;;;;;5025312;28;19920;-83
2022/02/14 12:49:26;;;;;;;;;;;18.10;99.90;;;;;;5027609;28;20301;-84
2022/02/14 12:51:51;;;;;;;;;;;18.70;99.90;;;;;;5025379;28;19914;-84
2022/02/14 12:54:17;;;;;;;;;;;19.20;99.90;;;;;;5025428;28;20018;-85
2022/02/14 12:56:43;;;;;;;;;;;19.60;99.90;;;;;;5025732;28;19920;-85
2022/02/14 12:59:10;;;;;;;;;;;19.90;99.90;;;;;;5026178;28;19921;-84
2022/02/14 13:01:40;;;;;;;;;;;20.00;99.90;;;;;;5021418;28;19920;-85
2022/02/14 13:04:07;;;;;;;;;;;19.90;99.90;;;;;;5025422;28;19913;-84
2022/02/14 13:06:39;;;;;;;;;;;19.50;99.90;;;;;;5029332;28;19924;-84
2022/02/14 13:09:23;;;;;;;;;;;18.80;99.90;;;;;;5027466;28;19901;-84
2022/02/14 13:11:49;;;;;;;;;;;18.30;99.90;;;;;;5024629;28;19920;-84
2022/02/14 13:14:30;;;;;;;;;;;17.90;99.90;;;;;;5023225;28;19924;-84
2022/02/14 13:16:56;;;;;;;;;;;17.40;99.90;;;;;;5039965;28;19936;-84
2022/02/14 13:19:22;;;;;;;;;;;17.20;99.90;;;;;;5029829;28;19945;-84
2022/02/14 13:21:48;;;;;;;;;;;16.80;99.90;;;;;;5026656;28;19914;-84
2022/02/14 13:24:27;;;;;;;;;;;16.50;99.90;;;;;;5028819;28;19922;-84
2022/02/14 13:27:00;;;;;;;;;;;16.20;99.90;;;;;;5026706;28;19918;-83
2022/02/14 13:29:27;;;;;;;;;;;15.80;99.90;;;;;;5063058;28;19917;-84
2022/02/14 13:31:52;;;;;;;;;;;15.70;99.90;;;;;;5029170;28;19929;-83
2022/02/14 13:34:18;;;;;;;;;;;15.70;99.90;;;;;;5033340;28;19913;-85
2022/02/14 13:36:54;;;;;;;;;;;15.70;99.90;;;;;;5031634;28;19944;-84
2022/02/14 13:39:30;;;;;;;;;;;15.50;99.90;;;;;;5028729;28;19920;-83
2022/02/14 13:41:55;;;;;;;;;;;15.30;99.90;;;;;;5027355;28;19914;-83
2022/02/14 13:44:21;;;;;;;;;;;15.00;99.90;;;;;;5029508;28;19921;-83
2022/02/14 13:46:47;;;;;;;;;;;14.80;99.90;;;;;;5030611;28;19981;-83
2022/02/14 13:49:30;;;;;;;;;;;14.70;99.90;;;;;;5031059;28;19929;-83
2022/02/14 13:51:55;;;;;;;;;;;14.60;99.90;;;;;;5028458;28;20460;-84
2022/02/14 13:54:21;;;;;;;;;;;14.50;99.90;;;;;;5031201;28;19913;-85
2022/02/14 13:56:47;;;;;;;;;;;14.30;99.90;;;;;;5032300;28;20008;-85
2022/02/14 13:59:22;;;;;;;;;;;14.20;99.90;;;;;;5029937;28;19925;-84
2022/02/14 14:01:48;;;;;;;;;;;14.10;99.90;;;;;;5023718;28;20161;-84
2022/02/14 14:04:28;;;;;;;;;;;14.10;99.90;;;;;;5031020;28;19953;-84
2022/02/14 14:07:04;;;;;;;;;;;14.20;99.90;;;;;;5027105;28;19913;-84
2022/02/14 14:09:29;;;;;;;;;;;14.20;99.90;;;;;;5032781;28;19909;-84
2022/02/14 14:11:55;;;;;;;;;;;14.20;99.90;;;;;;5028297;28;19913;-83
2022/02/14 14:14:30;;;;;;;;;;;14.30;99.90;;;;;;5029082;28;20127;-84
2022/02/14 14:16:56;;;;;;;;;;;14.30;99.90;;;;;;5027452;28;19939;-84
2022/02/14 14:19:21;;;;;;;;;;;14.40;99.90;;;;;;5031195;28;19944;-84
2022/02/14 14:21:47;;;;;;;;;;;14.40;99.90;;;;;;5028136;28;19913;-85
2022/02/14 14:24:12;;;;;;;;;;;14.40;99.90;;;;;;5023840;28;19948;-84
2022/02/14 14:26:38;;;;;;;;;;;14.40;99.90;;;;;;5058544;28;19913;-85
2022/02/14 14:29:03;;;;;;;;;;;14.40;99.90;;;;;;5024658;28;20008;-84
2022/02/14 14:31:29;;;;;;;;;;;14.40;99.90;;;;;;5030223;28;19920;-84
2022/02/14 14:33:54;;;;;;;;;;;14.40;99.90;;;;;;5032849;28;19914;-84
2022/02/14 14:36:20;;;;;;;;;;;14.30;99.90;;;;;;5030034;28;19910;-84
2022/02/14 14:38:47;;;;;;;;;;;14.20;99.90;;;;;;5028105;28;19921;-84
2022/02/14 14:41:12;;;;;;;;;;;14.10;99.90;;;;;;5029863;28;19959;-84
2022/02/14 14:43:38;;;;;;;;;;;14.10;99.90;;;;;;5029410;28;19914;-85
2022/02/14 14:46:04;;;;;;;;;;;14.10;99.90;;;;;;5027073;28;19933;-84
2022/02/14 14:48:29;;;;;;;;;;;14.10;99.90;;;;;;5032439;28;20008;-84
2022/02/14 14:50:55;;;;;;;;;;;14.10;99.90;;;;;;5025855;28;19933;-84